createdAt,value
2023-07-25T00:01:35.314Z,100199.50
2023-07-25T00:03:37.211Z,100200.56
2023-07-25T00:05:39.037Z,100204.34
2023-07-25T00:07:40.635Z,100208.97
2023-07-25T00:09:42.262Z,100208.97
2023-07-25T00:11:46.510Z,100210.66
2023-07-25T00:13:49.363Z,100207.94
2023-07-25T00:15:52.306Z,100197.00
2023-07-25T00:17:54.172Z,100191.53
2023-07-25T00:19:55.749Z,100197.22
2023-07-25T00:21:57.366Z,100199.72
2023-07-25T00:23:58.971Z,100205.41
2023-07-25T00:26:01.107Z,100201.81
2023-07-25T00:28:02.750Z,100198.25
2023-07-25T00:30:05.442Z,100200.34
2023-07-25T00:32:08.854Z,100204.78
2023-07-25T00:34:10.589Z,100201.00
2023-07-25T00:36:12.760Z,100199.31
2023-07-25T00:38:14.291Z,100202.03
2023-07-25T00:40:15.892Z,100196.78
2023-07-25T00:42:17.917Z,100195.97
2023-07-25T00:44:19.855Z,100195.97
2023-07-25T00:46:22.210Z,100200.56
2023-07-25T00:48:23.912Z,100190.09
2023-07-25T00:50:26.110Z,100191.56
2023-07-25T00:52:27.951Z,100188.81
2023-07-25T00:54:29.567Z,100180.63
2023-07-25T00:56:31.381Z,100179.16
2023-07-25T00:58:33.033Z,100181.06
2023-07-25T01:00:34.663Z,100182.97
2023-07-25T01:02:36.813Z,100179.16
2023-07-25T01:04:39.943Z,100167.63
2023-07-25T01:06:42.225Z,100169.31
2023-07-25T01:08:50.026Z,100181.06
2023-07-25T01:10:51.716Z,100178.56
2023-07-25T01:12:53.281Z,100172.69
2023-07-25T01:14:55.682Z,100172.06
2023-07-25T01:16:58.417Z,100172.25
2023-07-25T01:19:01.647Z,100168.69
2023-07-25T01:21:04.694Z,100173.09
2023-07-25T01:23:07.125Z,100172.25
2023-07-25T01:25:09.514Z,100167.63
2023-07-25T01:27:11.482Z,100165.13
2023-07-25T01:29:13.039Z,100161.34
2023-07-25T01:31:14.620Z,100156.72
2023-07-25T01:33:16.547Z,100147.06
2023-07-25T01:35:18.222Z,100149.78
2023-07-25T01:37:20.786Z,100157.97
2023-07-25T01:39:22.415Z,100153.59
2023-07-25T01:41:23.970Z,100153.38
2023-07-25T01:43:25.656Z,100147.28
2023-07-25T01:45:27.860Z,100158.19
2023-07-25T01:47:29.527Z,100160.09
2023-07-25T01:49:31.179Z,100159.06
2023-07-25T01:51:33.037Z,100159.88
2023-07-25T01:53:34.750Z,100163.66
2023-07-25T01:55:38.428Z,100159.28
2023-07-25T01:57:40.084Z,100168.50
2023-07-25T01:59:41.750Z,100164.94
2023-07-25T02:01:43.598Z,100163.88
2023-07-25T02:03:45.170Z,100161.13
2023-07-25T02:05:47.504Z,100156.75
2023-07-25T02:07:49.151Z,100157.59
2023-07-25T02:09:50.653Z,100155.91
2023-07-25T02:11:52.467Z,100154.22
2023-07-25T02:13:54.028Z,100155.03
2023-07-25T02:15:56.298Z,100151.47
2023-07-25T02:17:57.968Z,100149.78
2023-07-25T02:19:59.740Z,100151.69
2023-07-25T02:22:01.328Z,100152.53
2023-07-25T02:24:03.188Z,100147.50
2023-07-25T02:26:04.883Z,100143.94
2023-07-25T02:28:08.988Z,100141.22
2023-07-25T02:30:11.224Z,100137.00
2023-07-25T02:32:12.862Z,100133.03
2023-07-25T02:34:16.662Z,100134.06
2023-07-25T02:36:18.693Z,100135.75
2023-07-25T02:38:20.465Z,100136.78
2023-07-25T02:40:22.018Z,100136.78
2023-07-25T02:42:23.758Z,100129.66
2023-07-25T02:44:25.471Z,100131.34
2023-07-25T02:46:27.320Z,100129.66
2023-07-25T02:48:29.275Z,100133.25
2023-07-25T02:50:31.005Z,100129.44
2023-07-25T02:52:32.901Z,100127.78
2023-07-25T02:54:34.469Z,100126.09
2023-07-25T02:56:36.130Z,100126.94
2023-07-25T02:58:38.334Z,100124.19
2023-07-25T03:00:40.431Z,100117.09
2023-07-25T03:02:42.110Z,100115.84
2023-07-25T03:04:43.782Z,100123.59
2023-07-25T03:06:45.375Z,100124.63
2023-07-25T03:08:47.005Z,100120.22
2023-07-25T03:10:48.629Z,100128.19
2023-07-25T03:12:50.447Z,100131.78
2023-07-25T03:14:52.138Z,100133.84
2023-07-25T03:16:53.776Z,100134.72
2023-07-25T03:18:55.600Z,100132.22
2023-07-25T03:20:57.276Z,100127.56
2023-07-25T03:22:58.840Z,100131.13
2023-07-25T03:25:00.516Z,100131.13
2023-07-25T03:27:04.979Z,100130.31
2023-07-25T03:29:06.614Z,100126.75
2023-07-25T03:31:08.390Z,100129.69
2023-07-25T03:33:10.060Z,100130.53
2023-07-25T03:35:11.716Z,100121.50
2023-07-25T03:37:13.279Z,100131.56
2023-07-25T03:39:14.964Z,100136.19
2023-07-25T03:41:19.558Z,100138.09
2023-07-25T03:43:22.009Z,100135.38
2023-07-25T03:45:23.858Z,100135.38
2023-07-25T03:47:25.474Z,100140.81
2023-07-25T03:49:27.276Z,100132.84
2023-07-25T03:51:28.936Z,100132.84
2023-07-25T03:53:30.554Z,100143.78
2023-07-25T03:55:32.223Z,100143.78
2023-07-25T03:57:33.809Z,100148.38
2023-07-25T03:59:35.466Z,100147.53
2023-07-25T04:01:37.195Z,100159.28
2023-07-25T04:03:39.231Z,100161.19
2023-07-25T04:05:41.059Z,100156.78
2023-07-25T04:07:42.897Z,100159.72
2023-07-25T04:09:44.430Z,100167.69
2023-07-25T04:11:46.304Z,100167.91
2023-07-25T04:13:48.161Z,100177.16
2023-07-25T04:15:49.795Z,100182.41
2023-07-25T04:17:51.422Z,100172.53
2023-07-25T04:19:53.096Z,100184.28
2023-07-25T04:21:54.668Z,100192.44
2023-07-25T04:23:56.481Z,100185.34
2023-07-25T04:25:58.200Z,100193.53
2023-07-25T04:27:59.861Z,100190.81
2023-07-25T04:30:01.493Z,100189.13
2023-07-25T04:32:03.217Z,100199.19
2023-07-25T04:34:04.901Z,100202.75
2023-07-25T04:36:07.214Z,100196.47
2023-07-25T04:38:08.844Z,100191.22
2023-07-25T04:40:10.873Z,100182.19
2023-07-25T04:42:12.468Z,100178.41
2023-07-25T04:44:14.691Z,100173.16
2023-07-25T04:46:16.442Z,100179.47
2023-07-25T04:48:18.098Z,100173.38
2023-07-25T04:50:19.771Z,100185.78
2023-07-25T04:52:21.504Z,100188.72
2023-07-25T04:54:23.322Z,100179.06
2023-07-25T04:56:25.004Z,100180.75
2023-07-25T04:58:26.798Z,100190.59
2023-07-25T05:00:30.599Z,100191.00
2023-07-25T05:02:32.780Z,100197.09
2023-07-25T05:04:34.452Z,100204.44
2023-07-25T05:06:36.451Z,100208.03
2023-07-25T05:08:38.345Z,100209.91
2023-07-25T05:10:41.202Z,100203.00
2023-07-25T05:12:42.995Z,100206.34
2023-07-25T05:14:44.588Z,100210.09
2023-07-25T05:16:46.943Z,100208.44
2023-07-25T05:18:48.857Z,100212.22
2023-07-25T05:20:50.625Z,100207.38
2023-07-25T05:22:52.260Z,100218.28
2023-07-25T05:24:53.914Z,100202.78
2023-07-25T05:26:59.203Z,100208.84
2023-07-25T05:29:01.895Z,100212.22
2023-07-25T05:31:05.019Z,100213.03
2023-07-25T05:33:08.064Z,100213.25
2023-07-25T05:35:10.245Z,100216.81
2023-07-25T05:37:11.788Z,100222.28
2023-07-25T05:39:13.600Z,100224.16
2023-07-25T05:45:19.522Z,100222.47
2023-07-25T05:47:21.515Z,100226.28
2023-07-25T05:49:23.188Z,100228.81
2023-07-25T05:51:24.754Z,100231.53
2023-07-25T05:55:27.832Z,100238.84
2023-07-25T05:57:32.221Z,100240.13
2023-07-25T05:59:33.839Z,100244.72
2023-07-25T06:01:35.900Z,100246.41
2023-07-25T06:03:37.720Z,100251.25
2023-07-25T06:05:39.985Z,100254.59
2023-07-25T06:07:41.704Z,100255.66
2023-07-25T06:09:43.258Z,100250.19
2023-07-25T06:11:44.920Z,100255.66
2023-07-25T06:13:47.851Z,100261.09
2023-07-25T06:15:49.964Z,100260.28
2023-07-25T06:17:51.965Z,100274.94
2023-07-25T06:19:53.585Z,100271.41
2023-07-25T06:21:55.201Z,100270.56
2023-07-25T06:23:56.854Z,100274.34
2023-07-25T06:25:58.654Z,100271.81
2023-07-25T06:28:00.336Z,100287.13
2023-07-25T06:30:03.719Z,100283.56
2023-07-25T06:32:05.720Z,100285.44
2023-07-25T06:34:07.687Z,100286.50
2023-07-25T06:36:09.353Z,100287.34
2023-07-25T06:38:11.169Z,100290.28
2023-07-25T06:40:13.080Z,100296.56
2023-07-25T06:42:14.731Z,100298.47
2023-07-25T06:44:16.448Z,100299.09
2023-07-25T06:46:18.023Z,100307.69
2023-07-25T06:48:20.541Z,100304.13
2023-07-25T06:50:25.033Z,100311.47
2023-07-25T06:52:26.743Z,100315.25
2023-07-25T06:54:28.318Z,100313.56
2023-07-25T06:56:29.963Z,100320.72
2023-07-25T06:58:32.180Z,100320.06
2023-07-25T07:00:38.588Z,100325.50
2023-07-25T07:02:40.432Z,100332.03
2023-07-25T07:04:42.110Z,100334.56
2023-07-25T07:06:43.940Z,100341.88
2023-07-25T07:08:45.701Z,100347.53
2023-07-25T07:10:47.622Z,100349.44
2023-07-25T07:12:49.575Z,100350.47
2023-07-25T07:14:51.888Z,100360.56
2023-07-25T07:16:53.945Z,100362.47
2023-07-25T07:18:55.810Z,100360.75
2023-07-25T07:20:57.509Z,100368.94
2023-07-25T07:22:59.264Z,100373.53
2023-07-25T07:25:00.967Z,100372.91
2023-07-25T07:27:02.624Z,100390.97
2023-07-25T07:29:04.495Z,100391.38
2023-07-25T07:31:09.964Z,100391.19
2023-07-25T07:33:11.646Z,100392.22
2023-07-25T07:35:13.192Z,100392.41
2023-07-25T07:39:21.757Z,100410.88
2023-07-25T07:41:23.344Z,100406.25
2023-07-25T07:43:25.007Z,100405.84
2023-07-25T07:45:27.773Z,100412.75
2023-07-25T07:47:29.463Z,100421.78
2023-07-25T07:49:33.349Z,100420.31
2023-07-25T07:51:35.469Z,100436.66
2023-07-25T07:55:46.063Z,100427.88
2023-07-25T07:57:48.130Z,100436.88
2023-07-25T07:59:49.698Z,100437.91
2023-07-25T08:01:51.282Z,100446.94
2023-07-25T08:03:53.114Z,100447.16
2023-07-25T08:05:58.219Z,100446.72
2023-07-25T08:07:59.812Z,100453.03
2023-07-25T08:10:01.835Z,100454.06
2023-07-25T08:12:04.795Z,100447.56
2023-07-25T08:14:06.624Z,100440.63
2023-07-25T08:16:08.365Z,100451.34
2023-07-25T08:18:10.093Z,100456.78
2023-07-25T08:20:13.941Z,100453.63
2023-07-25T08:22:15.723Z,100473.34
2023-07-25T08:24:17.394Z,100464.72
2023-07-25T08:26:19.057Z,100471.66
2023-07-25T08:28:20.678Z,100475.63
2023-07-25T08:30:22.384Z,100468.50
2023-07-25T08:32:25.958Z,100468.72
2023-07-25T08:34:27.660Z,100474.53
2023-07-25T08:36:29.265Z,100486.06
2023-07-25T08:38:30.925Z,100495.97
2023-07-25T08:40:32.615Z,100503.28
2023-07-25T08:42:36.328Z,100507.88
2023-07-25T08:44:40.536Z,100502.63
2023-07-25T08:46:45.882Z,100509.78
2023-07-25T08:48:49.148Z,100514.56
2023-07-25T08:50:53.616Z,100514.56
2023-07-25T08:52:58.137Z,100512.25
2023-07-25T08:54:59.681Z,100522.94
2023-07-25T08:57:02.138Z,100525.47
2023-07-25T08:59:05.192Z,100536.16
2023-07-25T09:01:07.364Z,100533.66
2023-07-25T09:03:09.736Z,100537.22
2023-07-25T09:05:11.468Z,100540.78
2023-07-25T09:07:13.320Z,100544.34
2023-07-25T09:09:15.821Z,100543.31
2023-07-25T09:11:20.862Z,100556.13
2023-07-25T09:13:22.639Z,100563.44
2023-07-25T09:15:24.402Z,100566.16
2023-07-25T09:17:26.238Z,100560.53
2023-07-25T09:19:30.623Z,100573.31
2023-07-25T09:21:32.493Z,100565.31
2023-07-25T09:23:34.566Z,100578.75
2023-07-25T09:27:47.442Z,100593.03
2023-07-25T09:29:53.197Z,100590.53
2023-07-25T09:31:54.929Z,100590.31
2023-07-25T09:33:57.825Z,100595.78
2023-07-25T09:35:59.719Z,100585.94
2023-07-25T09:40:09.011Z,100609.41
2023-07-25T09:42:11.162Z,100600.56
2023-07-25T09:44:13.326Z,100610.28
2023-07-25T09:46:15.489Z,100607.75
2023-07-25T09:48:17.607Z,100613.19
2023-07-25T09:52:26.539Z,100614.03
2023-07-25T09:54:28.371Z,100618.44
2023-07-25T09:56:30.154Z,100619.28
2023-07-25T09:58:32.325Z,100621.59
2023-07-25T10:00:34.059Z,100625.00
2023-07-25T10:02:37.471Z,100641.34
2023-07-25T10:04:40.186Z,100632.31
2023-07-25T10:06:43.063Z,100636.72
2023-07-25T10:08:45.295Z,100641.16
2023-07-25T10:10:47.967Z,100633.81
2023-07-25T10:12:50.136Z,100627.53
2023-07-25T10:14:52.026Z,100636.13
2023-07-25T10:16:53.940Z,100635.50
2023-07-25T10:18:58.981Z,100638.03
2023-07-25T10:21:00.985Z,100636.97
2023-07-25T10:25:38.297Z,100645.16
2023-07-25T10:27:40.351Z,100639.69
2023-07-25T10:29:44.271Z,100633.59
2023-07-25T10:31:51.870Z,100627.94
2023-07-25T10:33:59.414Z,100639.69
2023-07-25T10:36:01.624Z,100630.88
2023-07-25T10:43:06.446Z,100630.47
2023-07-25T10:45:39.988Z,100630.28
2023-07-25T10:47:49.673Z,100634.91
2023-07-25T10:49:57.868Z,100634.91
2023-07-25T10:52:03.526Z,100636.75
2023-07-25T10:54:13.759Z,100639.50
2023-07-25T10:56:16.588Z,100640.56
2023-07-25T10:58:18.408Z,100655.03
2023-07-25T11:00:35.720Z,100643.47
2023-07-25T11:02:40.377Z,100656.72
2023-07-25T11:04:42.113Z,100662.81
2023-07-25T11:06:43.734Z,100659.47
2023-07-25T11:08:45.788Z,100657.38
2023-07-25T11:10:48.911Z,100657.84
2023-07-25T11:13:01.173Z,100657.63
2023-07-25T11:15:03.484Z,100654.72
2023-07-25T11:17:08.626Z,100651.78
2023-07-25T11:19:11.039Z,100658.13
2023-07-25T11:21:13.019Z,100652.25
2023-07-25T11:23:14.861Z,100657.13
2023-07-25T11:25:17.170Z,100664.22
2023-07-25T11:27:21.960Z,100658.59
2023-07-25T11:29:23.635Z,100659.25
2023-07-25T11:31:25.340Z,100658.00
2023-07-25T11:33:27.099Z,100662.84
2023-07-25T11:35:31.033Z,100664.09
2023-07-25T11:37:33.329Z,100666.88
2023-07-25T12:04:57.303Z,100685.28
2023-07-25T12:07:00.062Z,100683.38
2023-07-25T12:09:02.150Z,100685.91
2023-07-25T12:11:05.931Z,100689.66
2023-07-25T12:13:12.024Z,100692.41
2023-07-25T12:15:13.974Z,100697.66
2023-07-25T12:17:15.926Z,100694.09
2023-07-25T12:19:17.574Z,100699.34
2023-07-25T12:21:30.325Z,100706.50
2023-07-25T12:23:39.438Z,100703.56
2023-07-25T12:25:41.367Z,100708.16
2023-07-25T12:27:50.003Z,100703.56
2023-07-25T12:29:51.660Z,100705.25
2023-07-25T12:31:55.126Z,100708.81
2023-07-25T12:33:56.923Z,100715.97
2023-07-25T12:35:58.867Z,100707.78
2023-07-25T12:38:00.417Z,100710.50
2023-07-25T12:40:02.168Z,100709.25
2023-07-25T12:42:04.087Z,100711.16
2023-07-25T12:44:06.432Z,100714.69
2023-07-25T12:46:09.275Z,100707.56
2023-07-25T12:48:12.177Z,100713.66
2023-07-25T12:50:16.285Z,100711.56
2023-07-25T12:52:19.433Z,100710.72
2023-07-25T12:54:21.416Z,100702.13
2023-07-25T12:56:23.059Z,100710.94
2023-07-25T12:58:25.053Z,100717.06
2023-07-25T13:00:26.669Z,100717.50
2023-07-25T13:02:28.383Z,100719.81
2023-07-25T13:04:32.184Z,100713.53
2023-07-25T13:06:35.854Z,100706.41
2023-07-25T13:08:37.532Z,100711.66
2023-07-25T13:10:39.199Z,100711.44
2023-07-25T13:12:40.907Z,100705.38
2023-07-25T13:14:42.576Z,100709.34
2023-07-25T13:16:44.250Z,100699.50
2023-07-25T13:18:45.929Z,100708.53
2023-07-25T13:20:47.843Z,100703.28
2023-07-25T13:22:50.164Z,100693.84
2023-07-25T13:24:56.190Z,100691.53
2023-07-25T13:26:57.861Z,100688.38
2023-07-25T13:28:59.511Z,100698.06
2023-07-25T13:31:01.126Z,100697.22
2023-07-25T13:33:05.744Z,100692.41
2023-07-25T13:35:07.999Z,100691.34
2023-07-25T13:37:09.631Z,100689.91
2023-07-25T13:39:11.266Z,100691.38
2023-07-25T13:41:14.194Z,100703.38
2023-07-25T13:43:15.955Z,100712.63
2023-07-25T13:45:17.934Z,100730.28
2023-07-25T13:47:19.691Z,100737.63
2023-07-25T13:49:21.412Z,100746.91
2023-07-25T13:51:23.325Z,100762.44
2023-07-25T13:53:25.079Z,100758.25
2023-07-25T13:55:26.665Z,100764.56
2023-07-25T13:57:32.662Z,100760.78
2023-07-25T13:59:35.525Z,100768.97
2023-07-25T14:01:37.434Z,100755.94
2023-07-25T14:03:39.423Z,100770.03
2023-07-25T14:05:41.113Z,100766.25
2023-07-25T14:07:42.755Z,100766.88
2023-07-25T14:09:44.613Z,100765.84
2023-07-25T14:11:46.786Z,100768.16
2023-07-25T14:13:49.068Z,100763.50
2023-07-25T14:15:54.088Z,100765.41
2023-07-25T14:17:55.774Z,100765.00
2023-07-25T14:19:57.878Z,100759.31
2023-07-25T14:21:59.588Z,100772.78
2023-07-25T14:24:01.357Z,100769.22
2023-07-25T14:26:02.974Z,100774.91
2023-07-25T14:28:04.687Z,100770.47
2023-07-25T14:30:07.088Z,100769.63
2023-07-25T14:32:09.055Z,100766.06
2023-07-25T14:34:10.681Z,100770.06
2023-07-25T14:36:12.399Z,100760.97
2023-07-25T14:38:14.426Z,100757.41
2023-07-25T14:40:16.057Z,100763.09
2023-07-25T14:42:17.888Z,100763.09
2023-07-25T14:44:19.750Z,100768.56
2023-07-25T14:46:21.454Z,100766.88
2023-07-25T14:48:23.320Z,100766.88
2023-07-25T14:50:25.371Z,100770.69
2023-07-25T14:52:27.315Z,100769.81
2023-07-25T14:54:29.332Z,100761.81
2023-07-25T14:56:33.623Z,100764.75
2023-07-25T14:58:35.796Z,100775.69
2023-07-25T15:00:37.939Z,100769.59
2023-07-25T15:02:40.388Z,100767.72
2023-07-25T15:04:42.155Z,100771.50
2023-07-25T15:06:43.737Z,100783.28
2023-07-25T15:08:45.392Z,100784.53
2023-07-25T15:10:47.017Z,100778.22
2023-07-25T15:12:48.892Z,100786.44
2023-07-25T15:14:50.720Z,100775.69
2023-07-25T15:16:52.357Z,100783.06
2023-07-25T15:18:54.177Z,100782.00
2023-07-25T15:20:55.869Z,100782.66
2023-07-25T15:22:57.584Z,100774.66
2023-07-25T15:24:59.231Z,100781.38
2023-07-25T15:27:00.842Z,100780.97
2023-07-25T15:29:02.461Z,100785.16
2023-07-25T15:31:04.369Z,100795.44
2023-07-25T15:33:07.862Z,100782.00
2023-07-25T15:35:10.653Z,100787.66
2023-07-25T15:37:12.706Z,100783.25
2023-07-25T15:39:14.263Z,100785.13
2023-07-25T15:41:15.952Z,100786.81
2023-07-25T15:43:17.607Z,100780.72
2023-07-25T15:45:19.309Z,100785.31
2023-07-25T15:47:20.931Z,100786.34
2023-07-25T15:49:23.080Z,100787.38
2023-07-25T15:51:24.769Z,100785.72
2023-07-25T15:53:26.338Z,100786.75
2023-07-25T15:55:28.029Z,100783.41
2023-07-25T15:57:29.653Z,100784.44
2023-07-25T15:59:31.252Z,100782.75
2023-07-25T16:01:33.640Z,100786.75
2023-07-25T16:03:35.606Z,100787.78
2023-07-25T16:05:37.662Z,100788.63
2023-07-25T16:07:39.236Z,100789.69
2023-07-25T16:09:43.517Z,100794.50
2023-07-25T16:11:46.151Z,100791.16
2023-07-25T16:13:49.579Z,100792.19
2023-07-25T16:15:51.247Z,100790.50
2023-07-25T16:17:52.925Z,100793.22
2023-07-25T16:19:54.614Z,100792.59
2023-07-25T16:21:56.200Z,100792.81
2023-07-25T16:23:57.784Z,100800.78
2023-07-25T16:26:00.817Z,100801.00
2023-07-25T16:28:04.158Z,100807.50
2023-07-25T16:30:06.430Z,100813.63
2023-07-25T16:32:08.101Z,100822.66
2023-07-25T16:36:16.584Z,100828.53
2023-07-25T16:38:19.453Z,100834.41
2023-07-25T16:40:21.043Z,100834.81
2023-07-25T16:42:23.734Z,100831.44
2023-07-25T16:46:31.995Z,100852.22
2023-07-25T16:48:33.770Z,100856.84
2023-07-25T16:50:35.524Z,100862.50
2023-07-25T16:52:37.732Z,100869.00
2023-07-25T16:54:39.407Z,100871.28
2023-07-25T16:56:41.009Z,100875.06
2023-07-25T16:58:42.737Z,100873.38
2023-07-25T17:00:44.508Z,100875.47
2023-07-25T17:02:46.503Z,100871.88
2023-07-25T17:04:48.315Z,100867.69
2023-07-25T17:06:49.877Z,100866.81
2023-07-25T17:08:52.509Z,100877.94
2023-07-25T17:10:54.173Z,100877.31
2023-07-25T17:12:55.742Z,100883.59
2023-07-25T17:14:57.503Z,100885.69
2023-07-25T17:16:59.029Z,100882.97
2023-07-25T17:19:00.643Z,100884.00
2023-07-25T17:21:02.278Z,100877.06
2023-07-25T17:23:04.312Z,100883.38
2023-07-25T17:25:06.696Z,100889.03
2023-07-25T17:27:08.366Z,100886.31
2023-07-25T17:29:10.352Z,100883.78
2023-07-25T17:31:12.709Z,100888.38
2023-07-25T17:33:14.411Z,100884.38
2023-07-25T17:35:23.835Z,100880.78
2023-07-25T17:37:29.389Z,100892.34
2023-07-25T17:39:30.931Z,100889.63
2023-07-25T17:41:32.921Z,100889.63
2023-07-25T17:43:34.719Z,100886.91
2023-07-25T17:45:36.564Z,100885.84
2023-07-25T17:47:38.208Z,100890.06
2023-07-25T17:49:40.172Z,100889.66
2023-07-25T17:51:41.930Z,100880.44
2023-07-25T17:53:43.486Z,100880.88
2023-07-25T17:55:45.454Z,100881.75
2023-07-25T17:57:47.109Z,100879.63
2023-07-25T17:59:48.651Z,100872.28
2023-07-25T18:01:50.535Z,100879.44
2023-07-25T18:03:52.590Z,100879.22
2023-07-25T18:05:54.222Z,100883.88
2023-07-25T18:07:55.827Z,100886.41
2023-07-25T18:09:57.428Z,100883.25
2023-07-25T18:11:59.442Z,100885.78
2023-07-25T18:14:01.100Z,100892.91
2023-07-25T18:16:02.932Z,100885.38
2023-07-25T18:18:04.702Z,100888.94
2023-07-25T18:20:07.107Z,100896.75
2023-07-25T18:22:08.966Z,100883.75
2023-07-25T18:24:12.087Z,100885.63
2023-07-25T18:26:13.873Z,100895.50
2023-07-25T18:28:16.123Z,100887.31
2023-07-25T18:30:17.702Z,100884.78
2023-07-25T18:32:19.504Z,100889.84
2023-07-25T18:34:21.134Z,100896.81
2023-07-25T18:36:22.746Z,100899.72
2023-07-25T18:38:24.993Z,100900.38
2023-07-25T18:40:27.294Z,100906.47
2023-07-25T18:42:29.307Z,100902.91
2023-07-25T18:44:30.994Z,100899.97
2023-07-25T18:46:32.757Z,100899.56
2023-07-25T18:48:34.604Z,100906.31
2023-07-25T18:50:42.861Z,100911.38
2023-07-25T18:52:44.520Z,100913.28
2023-07-25T18:54:46.303Z,100909.53
2023-07-25T18:56:47.922Z,100916.25
2023-07-25T18:58:49.524Z,100911.91
2023-07-25T19:00:51.580Z,100915.94
2023-07-25T19:02:54.065Z,100912.78
2023-07-25T19:04:55.731Z,100917.63
2023-07-25T19:06:57.394Z,100923.53
2023-07-25T19:08:59.570Z,100912.41
2023-07-25T19:11:01.131Z,100916.84
2023-07-25T19:13:02.873Z,100916.63
2023-07-25T19:15:04.973Z,100916.47
2023-07-25T19:17:07.554Z,100920.03
2023-07-25T19:19:09.296Z,100919.63
2023-07-25T19:21:10.916Z,100922.13
2023-07-25T19:23:25.123Z,100932.88
2023-07-25T19:25:27.933Z,100922.13
2023-07-25T19:27:29.542Z,100933.50
2023-07-25T19:29:31.175Z,100926.53
2023-07-25T19:31:32.858Z,100935.97
2023-07-25T19:33:34.573Z,100942.91
2023-07-25T19:35:36.216Z,100938.06
2023-07-25T19:37:37.851Z,100939.50
2023-07-25T19:39:39.566Z,100948.75
2023-07-25T19:41:41.284Z,100943.88
2023-07-25T19:43:43.114Z,100947.22
2023-07-25T19:45:47.778Z,100954.78
2023-07-25T19:47:49.622Z,100937.69
2023-07-25T19:49:51.789Z,100957.44
2023-07-25T19:51:53.423Z,100957.22
2023-07-25T19:53:55.669Z,100961.38
2023-07-25T19:55:57.329Z,100960.09
2023-07-25T19:57:58.898Z,100955.03
2023-07-25T20:00:00.518Z,100962.81
2023-07-25T20:02:02.220Z,100961.31
2023-07-25T20:04:03.826Z,100968.44
2023-07-25T20:06:07.677Z,100972.19
2023-07-25T20:08:09.280Z,100970.06
2023-07-25T20:10:10.908Z,100982.03
2023-07-25T20:12:12.516Z,100981.00
2023-07-25T20:14:14.395Z,100982.03
2023-07-25T20:16:16.121Z,100984.13
2023-07-25T20:18:17.814Z,100981.59
2023-07-25T20:20:19.515Z,100988.47
2023-07-25T20:22:21.118Z,100992.63
2023-07-25T20:24:22.873Z,100993.03
2023-07-25T20:26:24.544Z,101000.19
2023-07-25T20:28:27.237Z,100997.66
2023-07-25T20:30:29.300Z,101000.59
2023-07-25T20:32:31.033Z,100991.56
2023-07-25T20:34:32.622Z,100999.94
2023-07-25T20:36:34.514Z,101004.75
2023-07-25T20:38:36.433Z,100997.78
2023-07-25T20:40:41.254Z,101003.44
2023-07-25T20:42:43.006Z,101007.63
2023-07-25T20:44:44.648Z,101013.28
2023-07-25T20:46:46.260Z,101013.47
2023-07-25T20:48:47.963Z,101016.75
2023-07-25T20:50:49.965Z,101019.69
2023-07-25T20:52:52.181Z,101016.69
2023-07-25T20:54:53.729Z,101023.19
2023-07-25T20:56:55.415Z,101024.44
2023-07-25T20:58:57.094Z,101025.66
2023-07-25T21:00:58.640Z,101025.00
2023-07-25T21:03:00.316Z,101024.34
2023-07-25T21:05:01.921Z,101032.72
2023-07-25T21:07:06.962Z,101040.06
2023-07-25T21:09:08.622Z,101033.09
2023-07-25T21:11:10.455Z,101039.63
2023-07-25T21:13:12.082Z,101038.13
2023-07-25T21:15:13.677Z,101032.22
2023-07-25T21:17:15.300Z,101047.34
2023-07-25T21:19:16.940Z,101048.59
2023-07-25T21:21:18.548Z,101049.63
2023-07-25T21:23:23.554Z,101052.53
2023-07-25T21:25:25.378Z,101047.47
2023-07-25T21:27:26.907Z,101047.47
2023-07-25T21:31:29.976Z,101059.59
2023-07-25T21:33:31.704Z,101058.75
2023-07-25T21:35:33.724Z,101059.97
2023-07-25T21:37:35.405Z,101054.72
2023-07-25T21:39:37.075Z,101056.81
2023-07-25T21:41:39.030Z,101058.47
2023-07-25T21:43:43.331Z,101058.66
2023-07-25T21:45:45.014Z,101066.84
2023-07-25T21:47:46.706Z,101067.91
2023-07-25T21:49:48.381Z,101062.66
2023-07-25T21:51:49.994Z,101065.56
2023-07-25T21:53:51.778Z,101069.13
2023-07-25T21:55:54.834Z,101073.94
2023-07-25T21:57:56.412Z,101071.41
2023-07-25T21:59:58.169Z,101067.81
2023-07-25T22:01:59.817Z,101075.16
2023-07-25T22:04:01.965Z,101075.34
2023-07-25T22:06:03.788Z,101076.38
2023-07-25T22:08:05.601Z,101064.63
2023-07-25T22:10:07.740Z,101068.38
2023-07-25T22:12:10.187Z,101070.28
2023-07-25T22:14:11.945Z,101070.28
2023-07-25T22:16:13.700Z,101071.31
2023-07-25T22:18:15.333Z,101076.09
2023-07-25T22:20:17.015Z,101071.88
2023-07-25T22:22:18.601Z,101076.50
2023-07-25T22:24:20.161Z,101070.84
2023-07-25T22:26:21.995Z,101066.41
2023-07-25T22:28:23.651Z,101074.78
2023-07-25T22:30:25.321Z,101078.34
2023-07-25T22:32:27.045Z,101076.69
2023-07-25T22:34:28.644Z,101074.97
2023-07-25T22:36:30.580Z,101070.56
2023-07-25T22:38:32.491Z,101077.72
2023-07-25T22:40:34.130Z,101076.00
2023-07-25T22:42:35.715Z,101078.91
2023-07-25T22:44:37.306Z,101080.81
2023-07-25T22:46:38.956Z,101082.69
2023-07-25T22:48:40.742Z,101076.56
2023-07-25T22:50:42.270Z,101073.84
2023-07-25T22:52:45.824Z,101083.09
2023-07-25T22:54:47.614Z,101075.94
2023-07-25T22:56:49.197Z,101076.94
2023-07-25T22:58:50.801Z,101083.28
2023-07-25T23:00:52.470Z,101077.34
2023-07-25T23:02:54.184Z,101079.03
2023-07-25T23:04:55.997Z,101088.22
2023-07-25T23:06:57.721Z,101078.34
2023-07-25T23:08:59.325Z,101076.84
2023-07-25T23:11:01.205Z,101077.66
2023-07-25T23:13:03.084Z,101082.28
2023-07-25T23:15:05.174Z,101086.88
2023-07-25T23:17:07.144Z,101083.31
2023-07-25T23:19:08.718Z,101078.88
2023-07-25T23:21:10.317Z,101095.25
2023-07-25T23:23:12.434Z,101095.44
2023-07-25T23:25:14.006Z,101093.56
2023-07-25T23:27:15.576Z,101083.69
2023-07-25T23:29:17.239Z,101092.91
2023-07-25T23:31:18.936Z,101094.78
2023-07-25T23:33:21.393Z,101096.69
2023-07-25T23:35:22.954Z,101094.78
2023-07-25T23:37:24.633Z,101095.16
2023-07-25T23:39:26.230Z,101102.31
2023-07-25T23:41:27.818Z,101093.66
2023-07-25T23:43:29.603Z,101089.72
2023-07-25T23:45:31.278Z,101089.91
2023-07-25T23:47:32.943Z,101093.66
2023-07-25T23:49:35.096Z,101096.38
2023-07-25T23:51:36.702Z,101092.81
2023-07-25T23:53:38.354Z,101091.09
2023-07-25T23:55:39.959Z,101093.00
2023-07-25T23:57:41.626Z,101093.19
2023-07-25T23:59:43.232Z,101086.03
